AirNav   MODERNIZE NOT PRIVATIZE ATC
 
 963 users online  

75WI Smies Airport
Cedar Grove, Wisconsin, USA

GOING TO CEDAR GROVE?


FAA INFORMATION EFFECTIVE 20 JULY 2017

Location

FAA Identifier: 75WI
Lat/Long: 43-35-19.9910N / 087-47-03.3150W
43-35.333183N / 087-47.055250W
43.5888864 / -87.7842542
(estimated)
Elevation: 640 ft. / 195 m (estimated)
Variation: 02W (1985)
From city: 2 miles SW of CEDAR GROVE, WI
Time zone: UTC -5 (UTC -6 during Standard Time)
Zip code: 53070

Airport Operations

Airport use: Private use. Permission required prior to landing
Activation date: 11/1978
Control tower: no
ARTCC: CHICAGO CENTER
FSS: GREEN BAY FLIGHT SERVICE STATION
Attendance: UNATNDD
Wind indicator: no
Segmented circle: no

Airport Communications

WX ASOS at SBM (11 nm N): 110.0 (920-467-0744)
WX AWOS-3 at ETB (18 nm SW): 120.0 (262-334-6161)

Nearby radio navigation aids

VOR radial/distance  VOR name  Freq  Var
FAHr167/11.2FALLS VOR/DME110.0002W
BJBr057/(17.9)WEST BEND VOR109.8001W
LJTr023/30.8TIMMERMAN VOR/DME112.5002W
MTWr190/32.7MANITOWOC VOR/DME111.0002W
BAEr036/35.8BADGER VORTAC116.4002E

Airport Services

Runway Information

Runway N/S

Dimensions: 900 x 60 ft. / 274 x 18 m
Surface: turf
RUNWAY N  RUNWAY S
Traffic pattern: leftleft

Airport Ownership and Management from official FAA records

Ownership: Privately-owned
Owner: DONALD SMIES
RR2
OOSTBURG, WI 53070
Phone 414-564-2746
Manager: DONALD SMIES
RR 2
OOSTBURG, WI 53070
Phone 414-564-2746

Airport Operational Statistics

Aircraft based on the field: 1
Single engine airplanes: 1
    

Instrument Procedures

There are no published instrument procedures at 75WI.

Some nearby airports with instrument procedures:

KSBM - Sheboygan County Memorial Airport (11 nm N)
KETB - West Bend Municipal Airport (18 nm SW)
8D1 - New Holstein Municipal Airport (26 nm NW)
KHXF - Hartford Municipal Airport (30 nm SW)
KMWC - Lawrence J Timmerman Airport (31 nm S)
 
Loc | Ops | Rwys | IFR | FBO | Links
Com | Nav | Svcs | Stats | Notes


 
Area around 75WI (Smies Airport)
 
Road maps at: MapQuest Bing Google
 
Aerial photo
No photo
 
Sectional chart

 
Airport distance calculator
Flying to Smies Airport? Find the distance to fly.

From to 75WI

Sunrise and sunset
Times for 22-Jul-2017
 Local
(UTC-5)
 Zulu
(UTC)
Morning civil twilight04:5709:57
Sunrise05:3110:31
Sunset20:2401:24
Evening civil twilight20:5801:58

Current date and time
Zulu (UTC)  22-Jul-2017 21:52:16
Local (UTC-5)  22-Jul-2017 16:52:16
 
METAR
KSBM 
12nm N 
222053Z AUTO 11006KT 10SM FEW029 SCT035 SCT044 26/22 A2981 RMK AO2 SLP091 T02560217 56004
KETB 
18nm SW 
222135Z AUTO 00000KT 10SM BKN029 BKN036 OVC042 26/21 A2981 RMK AO2 P0001
TAF
KMTW 
32nm N 
221731Z 2218/2318 10005KT P6SM BKN018 OVC028 FM222000 08006KT P6SM SCT028 OVC150 FM222200 11004KT P6SM SCT150 FM230300 27004KT P6SM BKN110 TEMPO 2303/2306 4SM TSRA OVC030CB FM230600 27004KT 4SM BR BKN050 FM231200 26005KT P6SM SCT050 SCT100
KUES 
38nm SW 
221743Z 2218/2318 32004KT P6SM OVC015 FM221900 36004KT P6SM BKN025 FM222100 02005KT P6SM SCT040 FM230600 VRB03KT P6SM VCTS BKN060CB FM230800 VRB03KT P6SM SCT070 FM231400 28007KT P6SM FEW060
KMKE 
39nm S 
221743Z 2218/2324 32008KT P6SM BKN018 FM221900 01004KT P6SM BKN025 FM222000 05006KT P6SM BKN035 FM222300 VRB05KT P6SM SCT050 FM230500 32004KT P6SM SCT080 FM230800 28005KT P6SM VCTS SCT060CB FM231000 27005KT P6SM SCT070 FM231700 30009KT P6SM SCT060
NOTAMs
Click for the latest NOTAMs
NOTAMs are issued by the DoD/FAA and will open in a separate window not controlled by AirNav.

 

 
 

Would you like to see your business listed on this page?

 If your business provides an interesting product or service to pilots, flight crews, aircraft, or users of the Smies Airport, you should consider listing it here.  To start the listing process, click on the button below
 
Add a business
 

Other Pages about Smies Airport

Update a link
 
Copyright © AirNav, LLC. All rights reserved. Privacy Policy  Contact